createdAt,value
2024-05-09T15:31:38.228Z,18.26
2024-05-09T15:34:41.699Z,18.42
2024-05-09T15:37:48.718Z,18.47
2024-05-09T15:43:57.129Z,18.00
2024-05-09T15:47:05.028Z,17.81
2024-05-09T15:50:17.069Z,17.77
2024-05-09T15:53:26.673Z,17.87
2024-05-09T15:56:30.113Z,18.00
2024-05-09T15:59:38.000Z,18.06
2024-05-09T16:02:43.592Z,18.08
2024-05-09T16:05:49.483Z,18.11
2024-05-09T16:08:52.731Z,18.10
2024-05-09T16:11:58.234Z,18.04
2024-05-09T16:15:01.123Z,17.93
2024-05-09T16:18:10.491Z,17.80
2024-05-09T16:21:15.812Z,17.62
2024-05-09T16:24:19.157Z,17.63
2024-05-09T16:27:24.243Z,17.64
2024-05-09T16:30:34.095Z,17.71
2024-05-09T16:33:42.960Z,17.71
2024-05-09T16:36:50.868Z,17.71
2024-05-09T16:39:53.808Z,17.75
2024-05-09T16:42:59.723Z,17.76
2024-05-09T16:46:05.178Z,18.03
2024-05-09T16:49:13.053Z,18.24
2024-05-09T16:52:16.051Z,18.34
2024-05-09T16:55:22.158Z,18.26
2024-05-09T16:58:26.374Z,18.01
2024-05-09T17:01:32.749Z,17.62
2024-05-09T17:04:37.973Z,17.31
2024-05-09T17:07:43.718Z,17.00
2024-05-09T17:10:50.229Z,16.76
2024-05-09T17:13:55.882Z,16.56
2024-05-09T17:17:01.054Z,16.46
2024-05-09T17:20:22.568Z,16.38
2024-05-09T17:23:35.166Z,16.25
2024-05-09T17:26:40.847Z,16.16
2024-05-09T17:29:45.888Z,16.05
2024-05-09T17:32:49.267Z,15.91
2024-05-09T17:35:56.539Z,15.74
2024-05-09T17:39:02.084Z,15.55
2024-05-09T17:42:05.899Z,15.39
2024-05-09T17:45:11.659Z,15.22
2024-05-09T17:48:15.096Z,15.02
2024-05-09T17:51:23.050Z,14.86
2024-05-09T17:54:26.111Z,14.67
2024-05-09T17:57:31.799Z,14.50
2024-05-09T18:00:40.242Z,14.28
2024-05-09T18:03:46.134Z,13.98
2024-05-09T18:06:53.683Z,13.84
2024-05-09T18:09:59.435Z,13.68
2024-05-09T18:13:02.709Z,13.47
2024-05-09T18:16:09.215Z,13.31
2024-05-09T18:19:12.591Z,13.13
2024-05-09T18:22:20.377Z,12.92
2024-05-09T18:25:23.417Z,12.71
2024-05-09T18:28:29.226Z,12.53
2024-05-09T18:31:32.112Z,12.34
2024-05-09T18:34:37.585Z,12.16
2024-05-09T18:37:43.513Z,11.96
2024-05-09T18:40:49.747Z,11.78
2024-05-09T18:43:53.867Z,11.61
2024-05-09T18:46:59.860Z,11.43
2024-05-09T18:50:03.814Z,11.26
2024-05-09T18:53:14.322Z,11.10
2024-05-09T18:56:19.361Z,10.75
2024-05-09T18:59:24.849Z,10.55
2024-05-09T19:02:30.071Z,10.43
2024-05-09T19:05:35.047Z,10.28
2024-05-09T19:08:42.914Z,10.15
2024-05-09T19:11:46.503Z,10.01
2024-05-09T19:14:51.393Z,9.71
2024-05-09T19:17:55.063Z,9.53
2024-05-09T19:21:00.272Z,9.38
2024-05-09T19:24:08.213Z,9.26
2024-05-09T19:27:13.484Z,9.15
2024-05-09T19:30:28.991Z,8.99
2024-05-09T19:33:39.240Z,8.78
2024-05-09T19:36:44.883Z,8.74
2024-05-09T19:39:49.958Z,8.70
2024-05-09T19:42:55.480Z,8.58
2024-05-09T19:46:00.523Z,8.47
2024-05-09T19:49:05.381Z,8.27
2024-05-09T19:52:10.689Z,8.23
2024-05-09T19:55:17.034Z,8.14
2024-05-09T19:58:22.162Z,8.02
2024-05-09T20:01:25.730Z,7.92
2024-05-09T20:04:30.977Z,7.85
2024-05-09T20:07:36.193Z,7.78
2024-05-09T20:10:43.977Z,7.71
2024-05-09T20:13:47.552Z,7.61
2024-05-09T20:16:52.514Z,7.51
2024-05-09T20:19:58.089Z,7.38
2024-05-09T20:23:00.915Z,7.25
2024-05-09T20:26:10.348Z,7.20
2024-05-09T20:29:13.081Z,7.13
2024-05-09T20:32:18.567Z,7.05
2024-05-09T20:35:21.378Z,6.98
2024-05-09T20:38:26.803Z,6.88
2024-05-09T20:41:33.608Z,6.76
2024-05-09T20:44:39.069Z,6.62
2024-05-09T20:47:41.874Z,6.49
2024-05-09T20:50:47.566Z,6.39
2024-05-09T20:53:50.449Z,6.31
